sensor_id;sensor_type;location;lat;lon;timestamp;P1;durP1;ratioP1;P2;durP2;ratioP2
42384;SDS011;28042;43.986;22.860;2023-06-14T00:00:47;7.88;;;4.38;;
42384;SDS011;28042;43.986;22.860;2023-06-14T00:03:13;13.52;;;4.38;;
42384;SDS011;28042;43.986;22.860;2023-06-14T00:05:42;11.88;;;4.25;;
42384;SDS011;28042;43.986;22.860;2023-06-14T00:08:08;11.50;;;4.22;;
42384;SDS011;28042;43.986;22.860;2023-06-14T00:10:35;21.65;;;5.10;;
42384;SDS011;28042;43.986;22.860;2023-06-14T00:13:01;15.32;;;4.53;;
42384;SDS011;28042;43.986;22.860;2023-06-14T00:15:29;14.00;;;4.68;;
42384;SDS011;28042;43.986;22.860;2023-06-14T00:17:56;24.95;;;4.50;;
42384;SDS011;28042;43.986;22.860;2023-06-14T00:20:25;18.50;;;4.72;;
42384;SDS011;28042;43.986;22.860;2023-06-14T00:22:52;17.60;;;5.03;;
42384;SDS011;28042;43.986;22.860;2023-06-14T00:25:19;21.00;;;5.55;;
42384;SDS011;28042;43.986;22.860;2023-06-14T00:27:44;13.90;;;4.95;;
42384;SDS011;28042;43.986;22.860;2023-06-14T00:30:10;19.48;;;5.30;;
42384;SDS011;28042;43.986;22.860;2023-06-14T00:32:36;20.08;;;5.07;;
42384;SDS011;28042;43.986;22.860;2023-06-14T00:35:01;19.48;;;5.22;;
42384;SDS011;28042;43.986;22.860;2023-06-14T00:37:27;28.88;;;6.35;;
42384;SDS011;28042;43.986;22.860;2023-06-14T00:39:52;15.15;;;5.30;;
42384;SDS011;28042;43.986;22.860;2023-06-14T00:42:27;16.52;;;5.70;;
42384;SDS011;28042;43.986;22.860;2023-06-14T00:44:53;10.27;;;6.07;;
42384;SDS011;28042;43.986;22.860;2023-06-14T00:47:20;14.90;;;6.38;;
42384;SDS011;28042;43.986;22.860;2023-06-14T00:49:46;21.52;;;7.18;;
42384;SDS011;28042;43.986;22.860;2023-06-14T00:52:13;13.68;;;5.65;;
42384;SDS011;28042;43.986;22.860;2023-06-14T00:54:42;10.30;;;5.93;;
42384;SDS011;28042;43.986;22.860;2023-06-14T00:57:09;15.85;;;5.80;;
42384;SDS011;28042;43.986;22.860;2023-06-14T00:59:46;13.85;;;5.85;;
42384;SDS011;28042;43.986;22.860;2023-06-14T01:02:12;20.77;;;6.25;;
42384;SDS011;28042;43.986;22.860;2023-06-14T01:04:40;12.60;;;5.93;;
42384;SDS011;28042;43.986;22.860;2023-06-14T01:15:18;14.40;;;5.65;;
42384;SDS011;28042;43.986;22.860;2023-06-14T01:17:46;13.63;;;5.38;;
42384;SDS011;28042;43.986;22.860;2023-06-14T01:20:16;12.27;;;5.68;;
42384;SDS011;28042;43.986;22.860;2023-06-14T01:22:50;15.95;;;5.75;;
42384;SDS011;28042;43.986;22.860;2023-06-14T01:25:17;14.98;;;5.85;;
42384;SDS011;28042;43.986;22.860;2023-06-14T01:27:46;12.20;;;5.50;;
42384;SDS011;28042;43.986;22.860;2023-06-14T01:30:13;10.05;;;4.97;;
42384;SDS011;28042;43.986;22.860;2023-06-14T01:32:39;13.75;;;5.32;;
42384;SDS011;28042;43.986;22.860;2023-06-14T01:35:05;11.82;;;4.82;;
42384;SDS011;28042;43.986;22.860;2023-06-14T01:37:31;15.07;;;5.03;;
42384;SDS011;28042;43.986;22.860;2023-06-14T01:39:57;13.63;;;5.72;;
42384;SDS011;28042;43.986;22.860;2023-06-14T01:42:23;12.50;;;5.88;;
42384;SDS011;28042;43.986;22.860;2023-06-14T01:44:50;11.10;;;5.38;;
42384;SDS011;28042;43.986;22.860;2023-06-14T01:47:18;9.10;;;5.22;;
42384;SDS011;28042;43.986;22.860;2023-06-14T01:49:45;10.85;;;5.22;;
42384;SDS011;28042;43.986;22.860;2023-06-14T01:52:11;17.20;;;5.95;;
42384;SDS011;28042;43.986;22.860;2023-06-14T01:54:37;8.95;;;5.32;;
42384;SDS011;28042;43.986;22.860;2023-06-14T01:57:06;13.15;;;5.57;;
42384;SDS011;28042;43.986;22.860;2023-06-14T01:59:33;13.57;;;5.22;;
42384;SDS011;28042;43.986;22.860;2023-06-14T02:02:00;10.02;;;5.50;;
42384;SDS011;28042;43.986;22.860;2023-06-14T02:04:27;10.90;;;5.35;;
42384;SDS011;28042;43.986;22.860;2023-06-14T02:06:53;14.80;;;6.13;;
42384;SDS011;28042;43.986;22.860;2023-06-14T02:09:18;17.30;;;6.00;;
42384;SDS011;28042;43.986;22.860;2023-06-14T02:11:43;9.68;;;5.35;;
42384;SDS011;28042;43.986;22.860;2023-06-14T02:14:09;13.60;;;5.63;;
42384;SDS011;28042;43.986;22.860;2023-06-14T02:16:36;13.88;;;5.68;;
42384;SDS011;28042;43.986;22.860;2023-06-14T02:19:04;9.50;;;5.22;;
42384;SDS011;28042;43.986;22.860;2023-06-14T02:21:32;13.20;;;6.65;;
42384;SDS011;28042;43.986;22.860;2023-06-14T02:23:57;17.10;;;5.60;;
42384;SDS011;28042;43.986;22.860;2023-06-14T02:26:23;10.43;;;6.32;;
42384;SDS011;28042;43.986;22.860;2023-06-14T02:28:49;16.98;;;6.03;;
42384;SDS011;28042;43.986;22.860;2023-06-14T02:31:14;18.05;;;6.35;;
42384;SDS011;28042;43.986;22.860;2023-06-14T02:33:41;11.18;;;5.40;;
42384;SDS011;28042;43.986;22.860;2023-06-14T02:36:06;11.93;;;6.32;;
42384;SDS011;28042;43.986;22.860;2023-06-14T02:38:32;13.13;;;6.35;;
42384;SDS011;28042;43.986;22.860;2023-06-14T02:40:58;15.18;;;6.75;;
42384;SDS011;28042;43.986;22.860;2023-06-14T02:43:25;15.93;;;6.78;;
42384;SDS011;28042;43.986;22.860;2023-06-14T02:45:50;14.20;;;7.28;;
42384;SDS011;28042;43.986;22.860;2023-06-14T02:48:16;16.77;;;6.68;;
42384;SDS011;28042;43.986;22.860;2023-06-14T02:50:41;22.00;;;6.43;;
42384;SDS011;28042;43.986;22.860;2023-06-14T02:53:07;11.55;;;7.15;;
42384;SDS011;28042;43.986;22.860;2023-06-14T02:55:33;18.85;;;7.07;;
42384;SDS011;28042;43.986;22.860;2023-06-14T02:57:58;14.32;;;6.85;;
42384;SDS011;28042;43.986;22.860;2023-06-14T03:00:24;13.48;;;6.90;;
42384;SDS011;28042;43.986;22.860;2023-06-14T03:02:49;10.55;;;6.28;;
42384;SDS011;28042;43.986;22.860;2023-06-14T03:05:16;11.93;;;6.43;;
42384;SDS011;28042;43.986;22.860;2023-06-14T03:07:46;15.60;;;7.20;;
42384;SDS011;28042;43.986;22.860;2023-06-14T03:10:12;17.00;;;7.55;;
42384;SDS011;28042;43.986;22.860;2023-06-14T03:12:38;10.57;;;7.82;;
42384;SDS011;28042;43.986;22.860;2023-06-14T03:15:04;14.38;;;7.30;;
42384;SDS011;28042;43.986;22.860;2023-06-14T03:17:30;17.75;;;7.53;;
42384;SDS011;28042;43.986;22.860;2023-06-14T03:19:59;14.80;;;7.57;;
42384;SDS011;28042;43.986;22.860;2023-06-14T03:22:25;23.97;;;8.83;;
42384;SDS011;28042;43.986;22.860;2023-06-14T03:24:51;16.40;;;7.78;;
42384;SDS011;28042;43.986;22.860;2023-06-14T03:27:17;18.23;;;7.20;;
42384;SDS011;28042;43.986;22.860;2023-06-14T03:29:43;20.73;;;7.65;;
42384;SDS011;28042;43.986;22.860;2023-06-14T03:32:09;16.55;;;8.50;;
42384;SDS011;28042;43.986;22.860;2023-06-14T03:34:35;15.88;;;7.03;;
42384;SDS011;28042;43.986;22.860;2023-06-14T03:37:00;14.75;;;7.65;;
42384;SDS011;28042;43.986;22.860;2023-06-14T03:39:26;15.35;;;7.85;;
42384;SDS011;28042;43.986;22.860;2023-06-14T03:41:51;18.83;;;8.23;;
42384;SDS011;28042;43.986;22.860;2023-06-14T03:44:17;16.88;;;8.27;;
42384;SDS011;28042;43.986;22.860;2023-06-14T03:46:44;13.85;;;7.72;;
42384;SDS011;28042;43.986;22.860;2023-06-14T03:49:11;17.15;;;8.23;;
42384;SDS011;28042;43.986;22.860;2023-06-14T03:51:37;15.35;;;7.47;;
42384;SDS011;28042;43.986;22.860;2023-06-14T03:54:02;12.63;;;7.68;;
42384;SDS011;28042;43.986;22.860;2023-06-14T03:56:28;16.00;;;8.55;;
42384;SDS011;28042;43.986;22.860;2023-06-14T03:58:53;10.30;;;7.63;;
42384;SDS011;28042;43.986;22.860;2023-06-14T04:01:20;16.80;;;7.63;;
42384;SDS011;28042;43.986;22.860;2023-06-14T04:03:46;13.68;;;8.07;;
42384;SDS011;28042;43.986;22.860;2023-06-14T04:06:11;16.75;;;8.95;;
42384;SDS011;28042;43.986;22.860;2023-06-14T04:08:37;16.20;;;7.68;;
42384;SDS011;28042;43.986;22.860;2023-06-14T04:11:04;18.90;;;8.55;;
42384;SDS011;28042;43.986;22.860;2023-06-14T04:13:30;13.50;;;7.90;;
42384;SDS011;28042;43.986;22.860;2023-06-14T04:15:56;12.30;;;7.85;;
42384;SDS011;28042;43.986;22.860;2023-06-14T04:18:22;12.32;;;6.95;;
42384;SDS011;28042;43.986;22.860;2023-06-14T04:20:48;15.65;;;7.82;;
42384;SDS011;28042;43.986;22.860;2023-06-14T04:23:15;10.82;;;7.82;;
42384;SDS011;28042;43.986;22.860;2023-06-14T04:25:43;12.38;;;8.10;;
42384;SDS011;28042;43.986;22.860;2023-06-14T04:28:11;13.82;;;8.07;;
42384;SDS011;28042;43.986;22.860;2023-06-14T04:30:37;14.80;;;8.38;;
42384;SDS011;28042;43.986;22.860;2023-06-14T04:33:04;15.15;;;8.27;;
42384;SDS011;28042;43.986;22.860;2023-06-14T04:35:31;12.05;;;7.68;;
42384;SDS011;28042;43.986;22.860;2023-06-14T04:37:57;12.27;;;8.18;;
42384;SDS011;28042;43.986;22.860;2023-06-14T04:40:24;12.90;;;9.85;;
42384;SDS011;28042;43.986;22.860;2023-06-14T04:42:50;8.77;;;7.38;;
42384;SDS011;28042;43.986;22.860;2023-06-14T04:45:16;11.88;;;7.82;;
42384;SDS011;28042;43.986;22.860;2023-06-14T04:47:42;11.75;;;7.70;;
42384;SDS011;28042;43.986;22.860;2023-06-14T04:50:09;20.02;;;8.00;;
42384;SDS011;28042;43.986;22.860;2023-06-14T04:52:36;13.20;;;7.18;;
42384;SDS011;28042;43.986;22.860;2023-06-14T04:55:02;20.13;;;7.82;;
42384;SDS011;28042;43.986;22.860;2023-06-14T04:57:28;16.38;;;7.50;;
42384;SDS011;28042;43.986;22.860;2023-06-14T04:59:54;16.42;;;7.10;;
42384;SDS011;28042;43.986;22.860;2023-06-14T05:02:23;16.08;;;7.32;;
42384;SDS011;28042;43.986;22.860;2023-06-14T05:04:50;17.70;;;6.65;;
42384;SDS011;28042;43.986;22.860;2023-06-14T05:07:16;20.58;;;7.20;;
42384;SDS011;28042;43.986;22.860;2023-06-14T05:09:41;11.88;;;6.43;;
42384;SDS011;28042;43.986;22.860;2023-06-14T05:12:07;17.30;;;7.10;;
42384;SDS011;28042;43.986;22.860;2023-06-14T05:14:33;9.90;;;5.85;;
42384;SDS011;28042;43.986;22.860;2023-06-14T05:16:59;9.98;;;6.07;;
42384;SDS011;28042;43.986;22.860;2023-06-14T05:19:25;14.98;;;6.40;;
42384;SDS011;28042;43.986;22.860;2023-06-14T05:21:51;20.00;;;6.45;;
42384;SDS011;28042;43.986;22.860;2023-06-14T05:24:18;15.20;;;6.75;;
42384;SDS011;28042;43.986;22.860;2023-06-14T05:26:43;11.23;;;6.00;;
42384;SDS011;28042;43.986;22.860;2023-06-14T05:29:09;13.32;;;6.47;;
42384;SDS011;28042;43.986;22.860;2023-06-14T05:31:35;17.17;;;5.72;;
42384;SDS011;28042;43.986;22.860;2023-06-14T05:34:00;11.93;;;6.40;;
42384;SDS011;28042;43.986;22.860;2023-06-14T05:36:26;12.45;;;5.40;;
42384;SDS011;28042;43.986;22.860;2023-06-14T05:38:53;10.90;;;6.03;;
42384;SDS011;28042;43.986;22.860;2023-06-14T05:41:24;17.67;;;5.50;;
42384;SDS011;28042;43.986;22.860;2023-06-14T05:43:56;9.32;;;5.35;;
42384;SDS011;28042;43.986;22.860;2023-06-14T05:46:22;9.98;;;6.35;;
42384;SDS011;28042;43.986;22.860;2023-06-14T05:48:50;13.45;;;5.88;;
42384;SDS011;28042;43.986;22.860;2023-06-14T05:51:16;8.95;;;4.75;;
42384;SDS011;28042;43.986;22.860;2023-06-14T05:53:50;9.70;;;5.68;;
42384;SDS011;28042;43.986;22.860;2023-06-14T05:56:16;15.75;;;6.18;;
42384;SDS011;28042;43.986;22.860;2023-06-14T05:58:47;9.02;;;5.60;;
42384;SDS011;28042;43.986;22.860;2023-06-14T06:01:13;12.68;;;5.85;;
42384;SDS011;28042;43.986;22.860;2023-06-14T06:03:39;8.02;;;5.07;;
42384;SDS011;28042;43.986;22.860;2023-06-14T06:06:04;11.43;;;5.43;;
42384;SDS011;28042;43.986;22.860;2023-06-14T06:08:30;7.55;;;5.07;;
42384;SDS011;28042;43.986;22.860;2023-06-14T06:10:56;8.73;;;4.80;;
42384;SDS011;28042;43.986;22.860;2023-06-14T06:13:22;7.70;;;4.32;;
42384;SDS011;28042;43.986;22.860;2023-06-14T06:15:47;9.88;;;5.10;;
42384;SDS011;28042;43.986;22.860;2023-06-14T06:18:13;5.03;;;4.20;;
42384;SDS011;28042;43.986;22.860;2023-06-14T06:20:38;9.02;;;4.10;;
42384;SDS011;28042;43.986;22.860;2023-06-14T06:23:04;4.25;;;3.55;;
42384;SDS011;28042;43.986;22.860;2023-06-14T06:25:30;5.43;;;4.07;;
42384;SDS011;28042;43.986;22.860;2023-06-14T06:27:57;6.28;;;4.30;;
42384;SDS011;28042;43.986;22.860;2023-06-14T06:30:22;7.80;;;5.10;;
42384;SDS011;28042;43.986;22.860;2023-06-14T06:32:48;11.93;;;5.30;;
42384;SDS011;28042;43.986;22.860;2023-06-14T06:35:14;5.30;;;4.22;;
42384;SDS011;28042;43.986;22.860;2023-06-14T06:37:41;6.22;;;4.13;;
42384;SDS011;28042;43.986;22.860;2023-06-14T06:40:07;5.32;;;4.10;;
42384;SDS011;28042;43.986;22.860;2023-06-14T06:42:33;6.70;;;4.28;;
42384;SDS011;28042;43.986;22.860;2023-06-14T06:44:59;6.75;;;4.28;;
42384;SDS011;28042;43.986;22.860;2023-06-14T06:47:25;8.05;;;4.57;;
42384;SDS011;28042;43.986;22.860;2023-06-14T06:49:50;5.20;;;3.88;;
42384;SDS011;28042;43.986;22.860;2023-06-14T06:52:16;6.05;;;4.28;;
42384;SDS011;28042;43.986;22.860;2023-06-14T06:54:42;6.65;;;4.05;;
42384;SDS011;28042;43.986;22.860;2023-06-14T06:57:07;11.23;;;4.55;;
42384;SDS011;28042;43.986;22.860;2023-06-14T06:59:34;8.77;;;4.13;;
42384;SDS011;28042;43.986;22.860;2023-06-14T07:02:00;5.13;;;3.60;;
42384;SDS011;28042;43.986;22.860;2023-06-14T07:04:26;7.68;;;3.97;;
42384;SDS011;28042;43.986;22.860;2023-06-14T07:06:51;7.50;;;3.20;;
42384;SDS011;28042;43.986;22.860;2023-06-14T07:09:17;7.25;;;3.33;;
42384;SDS011;28042;43.986;22.860;2023-06-14T07:11:46;5.90;;;3.15;;
42384;SDS011;28042;43.986;22.860;2023-06-14T07:14:12;4.32;;;3.55;;
42384;SDS011;28042;43.986;22.860;2023-06-14T07:16:38;6.40;;;3.70;;
42384;SDS011;28042;43.986;22.860;2023-06-14T07:19:04;4.65;;;3.40;;
42384;SDS011;28042;43.986;22.860;2023-06-14T07:21:30;8.10;;;3.40;;
42384;SDS011;28042;43.986;22.860;2023-06-14T07:23:55;5.60;;;3.90;;
42384;SDS011;28042;43.986;22.860;2023-06-14T07:26:21;4.20;;;3.78;;
42384;SDS011;28042;43.986;22.860;2023-06-14T07:28:48;7.78;;;4.32;;
42384;SDS011;28042;43.986;22.860;2023-06-14T07:31:14;6.28;;;4.30;;
42384;SDS011;28042;43.986;22.860;2023-06-14T07:33:41;7.63;;;5.20;;
42384;SDS011;28042;43.986;22.860;2023-06-14T07:36:07;7.10;;;4.60;;
42384;SDS011;28042;43.986;22.860;2023-06-14T07:38:33;6.82;;;4.70;;
42384;SDS011;28042;43.986;22.860;2023-06-14T07:40:59;10.18;;;5.05;;
42384;SDS011;28042;43.986;22.860;2023-06-14T07:43:25;9.05;;;5.03;;
42384;SDS011;28042;43.986;22.860;2023-06-14T07:45:51;6.03;;;5.13;;
42384;SDS011;28042;43.986;22.860;2023-06-14T07:48:16;8.07;;;5.18;;
42384;SDS011;28042;43.986;22.860;2023-06-14T07:50:42;9.20;;;5.07;;
42384;SDS011;28042;43.986;22.860;2023-06-14T07:53:26;7.75;;;4.60;;
42384;SDS011;28042;43.986;22.860;2023-06-14T07:55:51;7.25;;;4.88;;
42384;SDS011;28042;43.986;22.860;2023-06-14T07:58:17;6.93;;;5.10;;
42384;SDS011;28042;43.986;22.860;2023-06-14T08:00:42;7.30;;;5.25;;
42384;SDS011;28042;43.986;22.860;2023-06-14T08:03:08;9.98;;;5.50;;
42384;SDS011;28042;43.986;22.860;2023-06-14T08:05:33;8.00;;;6.10;;
42384;SDS011;28042;43.986;22.860;2023-06-14T08:07:59;10.23;;;6.10;;
42384;SDS011;28042;43.986;22.860;2023-06-14T08:10:25;9.38;;;7.10;;
42384;SDS011;28042;43.986;22.860;2023-06-14T08:12:51;10.77;;;7.68;;
42384;SDS011;28042;43.986;22.860;2023-06-14T08:15:17;9.90;;;7.28;;
42384;SDS011;28042;43.986;22.860;2023-06-14T08:17:43;9.95;;;7.80;;
42384;SDS011;28042;43.986;22.860;2023-06-14T08:20:09;9.93;;;7.90;;
42384;SDS011;28042;43.986;22.860;2023-06-14T08:22:35;14.38;;;8.90;;
42384;SDS011;28042;43.986;22.860;2023-06-14T08:25:01;10.40;;;7.90;;
42384;SDS011;28042;43.986;22.860;2023-06-14T08:27:27;11.90;;;8.35;;
42384;SDS011;28042;43.986;22.860;2023-06-14T08:29:52;11.20;;;7.70;;
42384;SDS011;28042;43.986;22.860;2023-06-14T08:32:18;15.70;;;8.27;;
42384;SDS011;28042;43.986;22.860;2023-06-14T08:34:44;13.57;;;8.48;;
42384;SDS011;28042;43.986;22.860;2023-06-14T08:37:09;12.90;;;7.60;;
42384;SDS011;28042;43.986;22.860;2023-06-14T08:39:35;14.23;;;8.45;;
42384;SDS011;28042;43.986;22.860;2023-06-14T08:42:01;10.55;;;7.45;;
42384;SDS011;28042;43.986;22.860;2023-06-14T08:44:28;8.90;;;7.30;;
42384;SDS011;28042;43.986;22.860;2023-06-14T08:46:55;11.18;;;7.75;;
42384;SDS011;28042;43.986;22.860;2023-06-14T08:49:24;10.77;;;7.63;;
42384;SDS011;28042;43.986;22.860;2023-06-14T08:51:52;10.25;;;7.43;;
42384;SDS011;28042;43.986;22.860;2023-06-14T08:54:23;11.73;;;8.10;;
42384;SDS011;28042;43.986;22.860;2023-06-14T08:56:52;10.82;;;6.88;;
42384;SDS011;28042;43.986;22.860;2023-06-14T08:59:23;9.65;;;6.95;;
42384;SDS011;28042;43.986;22.860;2023-06-14T09:01:51;10.43;;;6.97;;
42384;SDS011;28042;43.986;22.860;2023-06-14T09:04:18;11.68;;;7.65;;
42384;SDS011;28042;43.986;22.860;2023-06-14T09:06:45;14.32;;;8.20;;
42384;SDS011;28042;43.986;22.860;2023-06-14T09:09:10;25.27;;;8.52;;
42384;SDS011;28042;43.986;22.860;2023-06-14T09:11:37;11.73;;;7.70;;
42384;SDS011;28042;43.986;22.860;2023-06-14T09:14:03;10.88;;;7.68;;
42384;SDS011;28042;43.986;22.860;2023-06-14T09:16:31;11.73;;;7.93;;
42384;SDS011;28042;43.986;22.860;2023-06-14T09:18:57;11.85;;;7.72;;
42384;SDS011;28042;43.986;22.860;2023-06-14T09:21:23;11.55;;;7.55;;
42384;SDS011;28042;43.986;22.860;2023-06-14T09:23:48;12.38;;;8.15;;
42384;SDS011;28042;43.986;22.860;2023-06-14T09:26:15;12.13;;;8.38;;
42384;SDS011;28042;43.986;22.860;2023-06-14T09:28:42;16.20;;;8.88;;
42384;SDS011;28042;43.986;22.860;2023-06-14T09:31:09;12.13;;;8.60;;
42384;SDS011;28042;43.986;22.860;2023-06-14T09:36:01;10.55;;;7.78;;
42384;SDS011;28042;43.986;22.860;2023-06-14T09:38:27;9.13;;;8.05;;
42384;SDS011;28042;43.986;22.860;2023-06-14T09:40:52;11.88;;;8.38;;
42384;SDS011;28042;43.986;22.860;2023-06-14T09:43:21;12.00;;;9.02;;
42384;SDS011;28042;43.986;22.860;2023-06-14T09:45:48;11.05;;;8.63;;
42384;SDS011;28042;43.986;22.860;2023-06-14T09:48:16;13.98;;;8.98;;
42384;SDS011;28042;43.986;22.860;2023-06-14T09:50:45;12.45;;;8.82;;
42384;SDS011;28042;43.986;22.860;2023-06-14T09:53:13;12.38;;;8.90;;
42384;SDS011;28042;43.986;22.860;2023-06-14T09:55:40;11.25;;;9.13;;
42384;SDS011;28042;43.986;22.860;2023-06-14T09:58:07;11.23;;;8.85;;
42384;SDS011;28042;43.986;22.860;2023-06-14T10:00:35;13.07;;;9.90;;
42384;SDS011;28042;43.986;22.860;2023-06-14T10:03:16;22.17;;;10.35;;
42384;SDS011;28042;43.986;22.860;2023-06-14T10:05:46;11.77;;;9.18;;
42384;SDS011;28042;43.986;22.860;2023-06-14T10:08:15;14.02;;;10.23;;
42384;SDS011;28042;43.986;22.860;2023-06-14T10:10:43;16.63;;;9.75;;
42384;SDS011;28042;43.986;22.860;2023-06-14T10:13:09;15.50;;;10.52;;
42384;SDS011;28042;43.986;22.860;2023-06-14T10:24:20;15.32;;;10.27;;
42384;SDS011;28042;43.986;22.860;2023-06-14T10:26:57;12.65;;;9.40;;
42384;SDS011;28042;43.986;22.860;2023-06-14T10:29:28;13.50;;;10.55;;
42384;SDS011;28042;43.986;22.860;2023-06-14T10:31:58;14.00;;;9.90;;
42384;SDS011;28042;43.986;22.860;2023-06-14T10:37:07;13.07;;;9.85;;
42384;SDS011;28042;43.986;22.860;2023-06-14T10:39:40;17.85;;;10.68;;
42384;SDS011;28042;43.986;22.860;2023-06-14T10:42:07;13.23;;;10.20;;
42384;SDS011;28042;43.986;22.860;2023-06-14T10:44:33;12.90;;;9.25;;
42384;SDS011;28042;43.986;22.860;2023-06-14T10:47:06;14.80;;;9.65;;
42384;SDS011;28042;43.986;22.860;2023-06-14T10:49:36;15.98;;;9.70;;
42384;SDS011;28042;43.986;22.860;2023-06-14T10:52:07;15.10;;;9.88;;
42384;SDS011;28042;43.986;22.860;2023-06-14T10:57:52;13.07;;;9.88;;
42384;SDS011;28042;43.986;22.860;2023-06-14T11:00:23;30.27;;;11.25;;
42384;SDS011;28042;43.986;22.860;2023-06-14T11:05:57;21.13;;;10.80;;
42384;SDS011;28042;43.986;22.860;2023-06-14T11:11:29;13.98;;;9.27;;
42384;SDS011;28042;43.986;22.860;2023-06-14T11:13:59;14.30;;;9.00;;
42384;SDS011;28042;43.986;22.860;2023-06-14T11:18:54;11.35;;;9.45;;
42384;SDS011;28042;43.986;22.860;2023-06-14T11:21:20;15.23;;;9.30;;
42384;SDS011;28042;43.986;22.860;2023-06-14T11:23:50;12.70;;;9.70;;
42384;SDS011;28042;43.986;22.860;2023-06-14T11:26:23;11.75;;;9.15;;
42384;SDS011;28042;43.986;22.860;2023-06-14T11:28:54;13.60;;;10.60;;
42384;SDS011;28042;43.986;22.860;2023-06-14T11:31:21;15.48;;;10.07;;
42384;SDS011;28042;43.986;22.860;2023-06-14T11:33:49;12.52;;;9.52;;
42384;SDS011;28042;43.986;22.860;2023-06-14T11:36:15;13.27;;;9.82;;
42384;SDS011;28042;43.986;22.860;2023-06-14T11:38:41;13.43;;;8.98;;
42384;SDS011;28042;43.986;22.860;2023-06-14T11:41:07;16.42;;;9.90;;
42384;SDS011;28042;43.986;22.860;2023-06-14T11:43:32;14.68;;;9.90;;
42384;SDS011;28042;43.986;22.860;2023-06-14T11:46:00;14.18;;;10.10;;
42384;SDS011;28042;43.986;22.860;2023-06-14T11:48:38;16.60;;;9.70;;
42384;SDS011;28042;43.986;22.860;2023-06-14T11:51:07;14.23;;;9.45;;
42384;SDS011;28042;43.986;22.860;2023-06-14T11:53:33;15.10;;;9.23;;
42384;SDS011;28042;43.986;22.860;2023-06-14T11:55:59;13.45;;;9.15;;
42384;SDS011;28042;43.986;22.860;2023-06-14T11:58:25;10.15;;;8.38;;
42384;SDS011;28042;43.986;22.860;2023-06-14T12:00:52;12.50;;;8.60;;
42384;SDS011;28042;43.986;22.860;2023-06-14T12:03:22;13.32;;;7.70;;
42384;SDS011;28042;43.986;22.860;2023-06-14T12:06:02;13.50;;;7.78;;
42384;SDS011;28042;43.986;22.860;2023-06-14T12:08:37;11.88;;;6.63;;
42384;SDS011;28042;43.986;22.860;2023-06-14T12:11:07;11.52;;;6.70;;
42384;SDS011;28042;43.986;22.860;2023-06-14T12:13:38;12.27;;;5.93;;
42384;SDS011;28042;43.986;22.860;2023-06-14T12:16:06;9.30;;;6.57;;
42384;SDS011;28042;43.986;22.860;2023-06-14T12:18:37;12.10;;;6.32;;
42384;SDS011;28042;43.986;22.860;2023-06-14T12:21:04;10.35;;;6.28;;
42384;SDS011;28042;43.986;22.860;2023-06-14T12:23:44;10.45;;;6.38;;
42384;SDS011;28042;43.986;22.860;2023-06-14T12:26:17;10.07;;;6.47;;
42384;SDS011;28042;43.986;22.860;2023-06-14T12:28:47;10.25;;;7.15;;
42384;SDS011;28042;43.986;22.860;2023-06-14T12:31:13;7.97;;;6.57;;
42384;SDS011;28042;43.986;22.860;2023-06-14T12:33:41;11.65;;;7.40;;
42384;SDS011;28042;43.986;22.860;2023-06-14T12:36:07;11.27;;;7.33;;
42384;SDS011;28042;43.986;22.860;2023-06-14T12:38:34;13.45;;;6.68;;
42384;SDS011;28042;43.986;22.860;2023-06-14T12:41:00;12.18;;;6.93;;
42384;SDS011;28042;43.986;22.860;2023-06-14T12:43:25;10.50;;;6.85;;
42384;SDS011;28042;43.986;22.860;2023-06-14T12:45:51;9.40;;;7.13;;
42384;SDS011;28042;43.986;22.860;2023-06-14T12:48:17;19.13;;;7.82;;
42384;SDS011;28042;43.986;22.860;2023-06-14T12:50:42;11.40;;;6.55;;
42384;SDS011;28042;43.986;22.860;2023-06-14T12:53:08;10.30;;;6.47;;
42384;SDS011;28042;43.986;22.860;2023-06-14T12:55:34;10.20;;;6.80;;
42384;SDS011;28042;43.986;22.860;2023-06-14T12:57:59;15.15;;;6.45;;
42384;SDS011;28042;43.986;22.860;2023-06-14T13:00:25;8.05;;;6.13;;
42384;SDS011;28042;43.986;22.860;2023-06-14T13:02:55;10.02;;;6.57;;
42384;SDS011;28042;43.986;22.860;2023-06-14T13:05:21;11.18;;;6.03;;
42384;SDS011;28042;43.986;22.860;2023-06-14T13:07:47;9.93;;;5.85;;
42384;SDS011;28042;43.986;22.860;2023-06-14T13:10:12;10.27;;;6.60;;
42384;SDS011;28042;43.986;22.860;2023-06-14T13:12:38;9.48;;;6.28;;
42384;SDS011;28042;43.986;22.860;2023-06-14T13:15:04;8.18;;;6.00;;
42384;SDS011;28042;43.986;22.860;2023-06-14T13:17:29;8.63;;;6.10;;
42384;SDS011;28042;43.986;22.860;2023-06-14T13:19:58;12.10;;;6.70;;
42384;SDS011;28042;43.986;22.860;2023-06-14T13:22:25;9.00;;;6.65;;
42384;SDS011;28042;43.986;22.860;2023-06-14T13:24:50;8.32;;;6.82;;
42384;SDS011;28042;43.986;22.860;2023-06-14T13:27:16;12.85;;;7.50;;
42384;SDS011;28042;43.986;22.860;2023-06-14T13:29:43;10.65;;;7.28;;
42384;SDS011;28042;43.986;22.860;2023-06-14T13:32:08;9.85;;;6.93;;
42384;SDS011;28042;43.986;22.860;2023-06-14T13:34:34;10.75;;;7.28;;
42384;SDS011;28042;43.986;22.860;2023-06-14T13:36:59;9.05;;;6.72;;
42384;SDS011;28042;43.986;22.860;2023-06-14T13:39:25;13.98;;;7.55;;
42384;SDS011;28042;43.986;22.860;2023-06-14T13:41:51;10.63;;;7.07;;
42384;SDS011;28042;43.986;22.860;2023-06-14T13:44:16;13.15;;;6.88;;
42384;SDS011;28042;43.986;22.860;2023-06-14T13:46:44;11.45;;;7.13;;
42384;SDS011;28042;43.986;22.860;2023-06-14T13:49:10;10.00;;;6.88;;
42384;SDS011;28042;43.986;22.860;2023-06-14T13:51:37;12.52;;;7.18;;
42384;SDS011;28042;43.986;22.860;2023-06-14T13:54:02;8.45;;;6.78;;
42384;SDS011;28042;43.986;22.860;2023-06-14T13:56:28;8.88;;;7.30;;
42384;SDS011;28042;43.986;22.860;2023-06-14T13:58:55;12.48;;;6.85;;
42384;SDS011;28042;43.986;22.860;2023-06-14T14:01:21;13.68;;;7.45;;
42384;SDS011;28042;43.986;22.860;2023-06-14T14:03:47;9.63;;;7.05;;
42384;SDS011;28042;43.986;22.860;2023-06-14T14:06:15;12.00;;;7.20;;
42384;SDS011;28042;43.986;22.860;2023-06-14T14:08:41;12.30;;;7.47;;
42384;SDS011;28042;43.986;22.860;2023-06-14T14:11:07;13.70;;;6.95;;
42384;SDS011;28042;43.986;22.860;2023-06-14T14:13:34;10.32;;;6.88;;
42384;SDS011;28042;43.986;22.860;2023-06-14T14:16:01;8.15;;;6.28;;
42384;SDS011;28042;43.986;22.860;2023-06-14T14:18:27;9.13;;;6.30;;
42384;SDS011;28042;43.986;22.860;2023-06-14T14:20:53;14.23;;;7.38;;
42384;SDS011;28042;43.986;22.860;2023-06-14T14:23:18;8.18;;;6.32;;
42384;SDS011;28042;43.986;22.860;2023-06-14T14:25:45;9.18;;;6.15;;
42384;SDS011;28042;43.986;22.860;2023-06-14T14:28:11;10.93;;;6.43;;
42384;SDS011;28042;43.986;22.860;2023-06-14T14:30:37;6.95;;;5.75;;
42384;SDS011;28042;43.986;22.860;2023-06-14T14:33:04;10.07;;;6.10;;
42384;SDS011;28042;43.986;22.860;2023-06-14T14:35:30;8.85;;;5.63;;
42384;SDS011;28042;43.986;22.860;2023-06-14T14:37:56;8.23;;;5.68;;
42384;SDS011;28042;43.986;22.860;2023-06-14T14:40:22;13.43;;;9.35;;
42384;SDS011;28042;43.986;22.860;2023-06-14T14:42:47;12.23;;;6.15;;
42384;SDS011;28042;43.986;22.860;2023-06-14T14:45:12;10.75;;;6.43;;
42384;SDS011;28042;43.986;22.860;2023-06-14T14:47:38;8.80;;;6.43;;
42384;SDS011;28042;43.986;22.860;2023-06-14T14:50:04;10.13;;;6.55;;
42384;SDS011;28042;43.986;22.860;2023-06-14T14:52:33;7.28;;;4.97;;
42384;SDS011;28042;43.986;22.860;2023-06-14T14:54:59;11.02;;;6.38;;